Time;durP1;ratioP1;P1;durP2;ratioP2;P2;SDS_P1;SDS_P2;PMS_P1;PMS_P2;Temp;Humidity;BMP_temperature;BMP_pressure;BME280_temperature;BME280_humidity;BME280_pressure;Samples;Min_cycle;Max_cycle;Signal;HPM_P1;HPM_P2
2022/10/04 00:01:24;;;;;;;6.88;6.20;;;;;;;;;;4973667;28;20047;-65
2022/10/04 00:04:03;;;;;;;8.38;6.53;;;;;;;;;;4973919;28;20109;-65
2022/10/04 00:06:29;;;;;;;7.00;5.97;;;;;;;;;;4973457;28;20517;-65
2022/10/04 00:08:58;;;;;;;6.47;5.88;;;;;;;;;;4973507;28;20057;-64
2022/10/04 00:11:28;;;;;;;7.07;6.20;;;;;;;;;;4973609;28;20065;-65
2022/10/04 00:13:56;;;;;;;7.22;6.13;;;;;;;;;;4973055;28;20065;-65
2022/10/04 00:16:30;;;;;;;6.72;5.68;;;;;;;;;;4972683;28;20055;-65
2022/10/04 00:19:20;;;;;;;7.65;5.43;;;;;;;;;;4972757;28;20051;-65
2022/10/04 00:21:55;;;;;;;5.57;5.07;;;;;;;;;;4947962;28;20051;-65
2022/10/04 00:24:21;;;;;;;5.10;4.70;;;;;;;;;;4972714;28;20049;-65
2022/10/04 00:26:48;;;;;;;5.32;4.80;;;;;;;;;;4972497;28;20054;-65
2022/10/04 00:29:29;;;;;;;5.00;4.53;;;;;;;;;;4972420;28;20051;-65
2022/10/04 00:32:11;;;;;;;5.25;4.68;;;;;;;;;;4972636;28;20050;-65
2022/10/04 00:34:47;;;;;;;6.43;4.43;;;;;;;;;;4972663;28;20069;-64
2022/10/04 00:37:15;;;;;;;4.90;4.50;;;;;;;;;;4972612;28;20073;-64
2022/10/04 00:39:41;;;;;;;;;;;;;;;;;;4972658;28;20308;-64
2022/10/04 00:42:08;;;;;;;5.82;4.60;;;;;;;;;;4972090;28;19922;-64
2022/10/04 00:44:38;;;;;;;7.47;5.00;;;;;;;;;;4972469;28;20047;-65
2022/10/04 00:47:23;;;;;;;7.10;4.70;;;;;;;;;;4972261;28;20381;-64
2022/10/04 00:49:54;;;;;;;6.28;4.45;;;;;;;;;;4972217;28;20059;-65
2022/10/04 00:52:24;;;;;;;5.45;4.32;;;;;;;;;;4972023;28;20061;-65
2022/10/04 00:54:52;;;;;;;5.68;4.15;;;;;;;;;;4971821;28;20415;-65
2022/10/04 00:57:24;;;;;;;5.65;4.15;;;;;;;;;;4971988;28;20057;-64
2022/10/04 00:59:56;;;;;;;4.82;3.70;;;;;;;;;;4972058;28;20069;-65
2022/10/04 01:02:26;;;;;;;4.30;3.90;;;;;;;;;;4972144;28;20051;-65
2022/10/04 01:04:56;;;;;;;4.10;3.80;;;;;;;;;;4972018;28;20157;-65
2022/10/04 01:07:37;;;;;;;4.63;3.35;;;;;;;;;;4972221;28;20043;-65
2022/10/04 01:10:10;;;;;;;4.75;3.60;;;;;;;;;;4971946;28;20101;-65
2022/10/04 01:12:42;;;;;;;5.32;4.40;;;;;;;;;;4934078;28;1115899;-65
2022/10/04 01:15:14;;;;;;;3.90;3.60;;;;;;;;;;4971421;28;20078;-65
2022/10/04 01:18:01;;;;;;;3.95;3.55;;;;;;;;;;4972932;28;20061;-65
2022/10/04 01:20:36;;;;;;;6.47;4.20;;;;;;;;;;4972518;28;20128;-65
2022/10/04 01:23:03;;;;;;;5.90;4.00;;;;;;;;;;4972710;28;20047;-65
2022/10/04 01:25:43;;;;;;;4.93;4.43;;;;;;;;;;4972917;28;20047;-65
2022/10/04 01:28:09;;;;;;;5.47;4.47;;;;;;;;;;4973006;28;20054;-65
2022/10/04 01:30:36;;;;;;;5.70;4.70;;;;;;;;;;4973038;28;20450;-65
2022/10/04 01:33:05;;;;;;;6.07;4.53;;;;;;;;;;4972680;28;20054;-65
2022/10/04 01:35:35;;;;;;;7.28;4.28;;;;;;;;;;4972507;28;20089;-65
2022/10/04 01:38:05;;;;;;;5.43;4.57;;;;;;;;;;4972596;28;20427;-65
2022/10/04 01:40:37;;;;;;;4.63;3.95;;;;;;;;;;4972351;28;20043;-65
2022/10/04 01:43:08;;;;;;;4.90;3.97;;;;;;;;;;4972851;28;20058;-65
2022/10/04 01:45:39;;;;;;;5.40;4.00;;;;;;;;;;4972345;28;20054;-65
2022/10/04 01:48:09;;;;;;;4.22;3.38;;;;;;;;;;4972506;28;20051;-65
2022/10/04 01:50:38;;;;;;;3.83;3.42;;;;;;;;;;4971124;28;20054;-65
2022/10/04 01:53:11;;;;;;;3.33;2.65;;;;;;;;;;4972390;28;20051;-65
2022/10/04 01:55:40;;;;;;;4.13;2.85;;;;;;;;;;4972531;28;20546;-65
2022/10/04 01:58:12;;;;;;;3.75;2.67;;;;;;;;;;4972615;28;20061;-65
2022/10/04 02:00:50;;;;;;;4.63;2.58;;;;;;;;;;4972144;28;20047;-65
2022/10/04 02:03:19;;;;;;;2.40;2.20;;;;;;;;;;4972438;28;20058;-65
2022/10/04 02:05:55;;;;;;;3.38;2.20;;;;;;;;;;4972486;28;20054;-65
2022/10/04 02:08:24;;;;;;;1.98;1.58;;;;;;;;;;4975551;28;20046;-65
2022/10/04 02:10:51;;;;;;;2.15;2.00;;;;;;;;;;4975593;28;20494;-65
2022/10/04 02:13:17;;;;;;;3.58;2.15;;;;;;;;;;4975692;28;20047;-65
2022/10/04 02:15:46;;;;;;;2.92;2.25;;;;;;;;;;4975597;28;20051;-65
2022/10/04 02:18:14;;;;;;;2.45;2.25;;;;;;;;;;4975927;28;20050;-65
2022/10/04 02:20:40;;;;;;;;;;;;;;;;;;4976046;28;20047;-65
2022/10/04 02:23:07;;;;;;;3.42;1.95;;;;;;;;;;4975486;28;19979;-64
2022/10/04 02:25:35;;;;;;;2.53;2.03;;;;;;;;;;4975735;28;20046;-65
2022/10/04 02:28:01;;;;;;;2.10;1.95;;;;;;;;;;4975891;28;20061;-65
2022/10/04 02:30:34;;;;;;;2.50;2.30;;;;;;;;;;4975513;28;20050;-65
2022/10/04 02:33:00;;;;;;;2.17;2.03;;;;;;;;;;4975358;28;20055;-65
2022/10/04 02:35:34;;;;;;;2.22;1.92;;;;;;;;;;4975562;28;20051;-65
2022/10/04 02:38:21;;;;;;;2.70;1.92;;;;;;;;;;4975536;28;20082;-65
2022/10/04 02:40:56;;;;;;;2.50;1.73;;;;;;;;;;4975351;28;20054;-64
2022/10/04 02:43:35;;;;;;;2.08;1.88;;;;;;;;;;4974976;28;20058;-65
2022/10/04 02:46:07;;;;;;;2.28;1.60;;;;;;;;;;4975190;28;20059;-65
2022/10/04 02:48:36;;;;;;;3.03;1.77;;;;;;;;;;4975291;28;20055;-65
2022/10/04 02:51:26;;;;;;;3.50;1.90;;;;;;;;;;4975221;28;20053;-65
2022/10/04 02:53:59;;;;;;;1.90;1.80;;;;;;;;;;4956314;28;20046;-65
2022/10/04 02:56:29;;;;;;;3.08;1.88;;;;;;;;;;4974921;28;20490;-64
2022/10/04 02:58:59;;;;;;;3.40;2.25;;;;;;;;;;4974810;28;20076;-65
2022/10/04 03:01:27;;;;;;;2.60;2.40;;;;;;;;;;4974613;28;20495;-65
2022/10/04 03:03:54;;;;;;;2.03;1.92;;;;;;;;;;4974895;28;20050;-65
2022/10/04 03:06:23;;;;;;;2.80;2.20;;;;;;;;;;4975024;28;20403;-65
2022/10/04 03:08:49;;;;;;;3.13;2.83;;;;;;;;;;4974762;28;20047;-64
2022/10/04 03:11:17;;;;;;;2.80;2.60;;;;;;;;;;4974999;28;20051;-64
2022/10/04 03:13:46;;;;;;;4.13;2.50;;;;;;;;;;4974598;28;20058;-65
2022/10/04 03:16:12;;;;;;;3.65;2.80;;;;;;;;;;4974414;28;20054;-65
2022/10/04 03:18:39;;;;;;;4.10;2.60;;;;;;;;;;4973849;28;20055;-65
2022/10/04 03:21:06;;;;;;;2.50;2.30;;;;;;;;;;4974491;28;20050;-65
2022/10/04 03:23:33;;;;;;;2.72;2.53;;;;;;;;;;4974518;28;20039;-65
2022/10/04 03:26:02;;;;;;;3.03;2.77;;;;;;;;;;4974630;28;20047;-65
2022/10/04 03:28:28;;;;;;;2.38;2.25;;;;;;;;;;4974402;28;20047;-65
2022/10/04 03:30:56;;;;;;;4.00;2.90;;;;;;;;;;4974188;28;20058;-65
2022/10/04 03:33:24;;;;;;;2.83;2.10;;;;;;;;;;4974325;28;20057;-65
2022/10/04 03:35:55;;;;;;;3.42;2.60;;;;;;;;;;4974398;28;20061;-65
2022/10/04 03:38:23;;;;;;;2.50;2.00;;;;;;;;;;4974025;28;20511;-65
2022/10/04 03:40:52;;;;;;;2.30;2.10;;;;;;;;;;4974267;28;20051;-65
2022/10/04 03:43:21;;;;;;;2.20;2.00;;;;;;;;;;4973910;28;20051;-65
2022/10/04 03:45:48;;;;;;;4.07;2.20;;;;;;;;;;4974255;28;20047;-65
2022/10/04 03:48:18;;;;;;;2.65;2.20;;;;;;;;;;4974109;28;20058;-65
2022/10/04 03:50:46;;;;;;;2.85;2.65;;;;;;;;;;4973966;28;20063;-65
2022/10/04 03:53:26;;;;;;;4.60;2.80;;;;;;;;;;4974104;28;20062;-65
2022/10/04 03:55:52;;;;;;;3.42;2.53;;;;;;;;;;4973765;28;20463;-65
2022/10/04 03:58:19;;;;;;;2.65;2.45;;;;;;;;;;4974030;28;20156;-65
2022/10/04 04:01:12;;;;;;;4.18;3.00;;;;;;;;;;4973788;28;20047;-64
2022/10/04 04:03:59;;;;;;;3.15;2.95;;;;;;;;;;4946720;28;20047;-65
2022/10/04 04:06:29;;;;;;;3.08;2.72;;;;;;;;;;4953224;28;20039;-65
2022/10/04 04:08:56;;;;;;;2.92;2.47;;;;;;;;;;4973491;28;20058;-65
2022/10/04 04:11:26;;;;;;;3.03;2.30;;;;;;;;;;4973429;28;20058;-65
2022/10/04 04:13:52;;;;;;;2.83;2.47;;;;;;;;;;4973635;28;20057;-65
2022/10/04 04:16:21;;;;;;;2.92;2.55;;;;;;;;;;4973692;28;20062;-65
2022/10/04 04:18:48;;;;;;;2.28;2.00;;;;;;;;;;4973326;28;20511;-65
2022/10/04 04:21:17;;;;;;;2.33;2.20;;;;;;;;;;4973224;28;20058;-65
2022/10/04 04:23:47;;;;;;;2.63;2.42;;;;;;;;;;4973292;28;20050;-65
2022/10/04 04:26:21;;;;;;;2.88;2.50;;;;;;;;;;4973409;28;20055;-65
2022/10/04 04:28:49;;;;;;;2.45;2.20;;;;;;;;;;4973612;28;20487;-65
2022/10/04 04:31:34;;;;;;;2.50;2.30;;;;;;;;;;4972915;28;20055;-65
2022/10/04 04:34:02;;;;;;;2.53;2.33;;;;;;;;;;4973502;28;20126;-65
2022/10/04 04:36:29;;;;;;;2.38;2.17;;;;;;;;;;4973363;28;20062;-65
2022/10/04 04:41:58;;;;;;;2.08;1.88;;;;;;;;;;4973046;28;20061;-65
2022/10/04 04:44:25;;;;;;;4.38;2.35;;;;;;;;;;4973204;28;20065;-65
2022/10/04 04:46:59;;;;;;;2.63;2.42;;;;;;;;;;4973505;28;20059;-65
2022/10/04 04:49:28;;;;;;;2.30;2.10;;;;;;;;;;4973006;28;20054;-65
2022/10/04 04:51:56;;;;;;;2.67;2.47;;;;;;;;;;4972879;28;20051;-65
2022/10/04 04:54:25;;;;;;;5.60;2.70;;;;;;;;;;4972903;28;20566;-65
2022/10/04 04:56:52;;;;;;;3.60;2.88;;;;;;;;;;4973417;28;20055;-65
2022/10/04 04:59:20;;;;;;;3.28;3.05;;;;;;;;;;4973103;28;20051;-65
2022/10/04 05:01:47;;;;;;;3.08;2.88;;;;;;;;;;4972834;28;20047;-65
2022/10/04 05:04:23;;;;;;;5.97;2.80;;;;;;;;;;4972787;28;20101;-65
2022/10/04 05:07:01;;;;;;;4.07;3.63;;;;;;;;;;4972720;28;20784;-65
2022/10/04 05:09:27;;;;;;;5.63;4.05;;;;;;;;;;4972913;28;20046;-65
2022/10/04 05:11:55;;;;;;;3.92;3.58;;;;;;;;;;4972907;28;20058;-65
2022/10/04 05:14:22;;;;;;;5.30;4.45;;;;;;;;;;4972968;28;20069;-65
2022/10/04 05:16:49;;;;;;;5.25;4.78;;;;;;;;;;4973003;28;20054;-64
2022/10/04 05:19:31;;;;;;;5.10;4.55;;;;;;;;;;4972962;28;20183;-65
2022/10/04 05:21:59;;;;;;;5.22;4.68;;;;;;;;;;4972998;28;20047;-65
2022/10/04 05:24:25;;;;;;;;;;;;;;;;;;4973062;28;20047;-65
2022/10/04 05:26:53;;;;;;;7.32;5.90;;;;;;;;;;4973040;28;19929;-65
2022/10/04 05:29:23;;;;;;;7.07;5.82;;;;;;;;;;4972962;28;20047;-65
2022/10/04 05:31:58;;;;;;;9.48;6.40;;;;;;;;;;4972712;28;20050;-65
2022/10/04 05:34:26;;;;;;;8.48;6.60;;;;;;;;;;4972663;28;20055;-65
2022/10/04 05:36:55;;;;;;;7.75;6.20;;;;;;;;;;4972951;28;20058;-65
2022/10/04 05:39:44;;;;;;;7.85;5.68;;;;;;;;;;4972673;28;20054;-65
2022/10/04 05:42:15;;;;;;;8.45;5.78;;;;;;;;;;4974003;28;20057;-65
2022/10/04 05:44:51;;;;;;;8.35;6.38;;;;;;;;;;4976360;28;20047;-65
2022/10/04 05:47:23;;;;;;;6.28;5.43;;;;;;;;;;4976429;28;20403;-64
2022/10/04 05:49:51;;;;;;;8.80;5.00;;;;;;;;;;4976459;28;20399;-65
2022/10/04 05:52:26;;;;;;;6.32;4.80;;;;;;;;;;4976232;28;20049;-65
2022/10/04 05:55:11;;;;;;;6.40;5.65;;;;;;;;;;4976200;28;20415;-65
2022/10/04 05:57:52;;;;;;;7.00;4.93;;;;;;;;;;4976187;28;20046;-65
2022/10/04 06:00:22;;;;;;;6.40;5.80;;;;;;;;;;4974477;28;20518;-65
2022/10/04 06:02:49;;;;;;;6.40;5.53;;;;;;;;;;4976115;28;20050;-65
2022/10/04 06:05:21;;;;;;;7.53;6.20;;;;;;;;;;4975844;28;20046;-65
2022/10/04 06:07:54;;;;;;;6.93;5.95;;;;;;;;;;4975960;28;20043;-65
2022/10/04 06:10:23;;;;;;;6.90;6.20;;;;;;;;;;4976029;28;20060;-65
2022/10/04 06:13:09;;;;;;;6.15;5.55;;;;;;;;;;4974505;28;20495;-65
2022/10/04 06:15:48;;;;;;;6.93;6.10;;;;;;;;;;4951157;28;20065;-64
2022/10/04 06:18:30;;;;;;;8.32;5.97;;;;;;;;;;4975090;28;20505;-65
2022/10/04 06:21:08;;;;;;;8.55;6.57;;;;;;;;;;4975297;28;20054;-64
2022/10/04 06:23:42;;;;;;;6.65;6.05;;;;;;;;;;4974985;28;20051;-64
2022/10/04 06:26:11;;;;;;;8.43;6.22;;;;;;;;;;4975293;28;20059;-64
2022/10/04 06:29:10;;;;;;;8.15;6.22;;;;;;;;;;4975170;28;20051;-65
2022/10/04 06:31:57;;;;;;;7.60;6.32;;;;;;;;;;4950607;28;20061;-64
2022/10/04 06:34:29;;;;;;;6.68;5.93;;;;;;;;;;4961664;28;20043;-65
2022/10/04 06:36:59;;;;;;;7.75;5.75;;;;;;;;;;4973532;28;20039;-64
2022/10/04 06:39:44;;;;;;;7.05;6.20;;;;;;;;;;4974751;28;20410;-65
2022/10/04 06:42:32;;;;;;;7.93;5.80;;;;;;;;;;4974602;28;20043;-65
2022/10/04 06:44:59;;;;;;;5.20;4.72;;;;;;;;;;4974940;28;20522;-65
2022/10/04 06:47:29;;;;;;;6.57;5.43;;;;;;;;;;4974612;28;20046;-65
2022/10/04 06:49:58;;;;;;;5.55;4.63;;;;;;;;;;4974865;28;20285;-65
2022/10/04 06:52:25;;;;;;;7.40;5.10;;;;;;;;;;4974635;28;20414;-66
2022/10/04 06:54:51;;;;;;;4.97;4.30;;;;;;;;;;4974614;28;20503;-64
2022/10/04 06:57:21;;;;;;;5.05;4.00;;;;;;;;;;4974307;28;20042;-64
2022/10/04 06:59:57;;;;;;;5.20;4.35;;;;;;;;;;4974431;28;20489;-65
2022/10/04 07:02:27;;;;;;;5.00;4.35;;;;;;;;;;4974115;28;20049;-65
2022/10/04 07:05:00;;;;;;;4.03;3.55;;;;;;;;;;4974645;28;20051;-65
2022/10/04 07:07:36;;;;;;;4.95;4.03;;;;;;;;;;4974334;28;20057;-65
2022/10/04 07:10:05;;;;;;;3.50;3.20;;;;;;;;;;4974868;28;20047;-64
2022/10/04 07:12:33;;;;;;;5.80;3.63;;;;;;;;;;4974176;28;20051;-64
2022/10/04 07:15:02;;;;;;;3.70;3.40;;;;;;;;;;4974303;28;20047;-64
2022/10/04 07:17:41;;;;;;;3.75;3.28;;;;;;;;;;4974400;28;20051;-64
2022/10/04 07:20:16;;;;;;;3.17;2.88;;;;;;;;;;4974497;28;20046;-65
2022/10/04 07:22:50;;;;;;;3.75;3.33;;;;;;;;;;4974433;28;20506;-64
2022/10/04 07:25:21;;;;;;;3.92;3.33;;;;;;;;;;4974519;28;20076;-65
2022/10/04 07:29:19;;;;;;;3.65;3.10;;;;;;;;;;4974297;28;20055;-64
2022/10/04 07:31:00;;;;;;;5.45;3.47;;;;;;;;;;4974189;28;20137;-64
2022/10/04 07:33:27;;;;;;;4.85;3.72;;;;;;;;;;4973778;28;20102;-65
2022/10/04 07:36:06;;;;;;;5.15;3.92;;;;;;;;;;4974444;28;20055;-64
2022/10/04 07:38:36;;;;;;;6.82;4.00;;;;;;;;;;4973585;28;20058;-64
2022/10/04 07:41:07;;;;;;;5.60;4.45;;;;;;;;;;4973341;28;20054;-64
2022/10/04 07:43:55;;;;;;;5.05;3.80;;;;;;;;;;4973928;28;20059;-64
2022/10/04 07:46:40;;;;;;;4.85;4.30;;;;;;;;;;4967515;28;20051;-64
2022/10/04 07:49:16;;;;;;;5.28;4.35;;;;;;;;;;4974003;28;20051;-64
2022/10/04 07:51:52;;;;;;;5.00;4.32;;;;;;;;;;4973392;28;20058;-65
2022/10/04 07:54:21;;;;;;;6.30;4.20;;;;;;;;;;4972661;28;20059;-65
2022/10/04 07:56:53;;;;;;;4.82;4.07;;;;;;;;;;4972710;28;20057;-65
2022/10/04 07:59:43;;;;;;;4.03;3.55;;;;;;;;;;4972990;28;20046;-66
2022/10/04 08:02:18;;;;;;;4.80;3.92;;;;;;;;;;4946362;28;20047;-65
2022/10/04 08:04:47;;;;;;;4.20;3.60;;;;;;;;;;4972442;28;20058;-65
2022/10/04 08:07:18;;;;;;;6.18;3.95;;;;;;;;;;4973150;28;20784;-65
2022/10/04 08:09:44;;;;;;;6.65;3.75;;;;;;;;;;4973374;28;20388;-65
2022/10/04 08:12:19;;;;;;;3.55;3.20;;;;;;;;;;4972696;28;20059;-65
2022/10/04 08:15:15;;;;;;;5.05;3.08;;;;;;;;;;4973214;28;20047;-65
2022/10/04 08:18:00;;;;;;;3.97;3.05;;;;;;;;;;4972989;28;20066;-65
2022/10/04 08:20:39;;;;;;;3.05;2.45;;;;;;;;;;4972680;28;20042;-65
2022/10/04 08:23:18;;;;;;;3.72;2.53;;;;;;;;;;4972707;28;20069;-65
2022/10/04 08:25:50;;;;;;;3.30;2.67;;;;;;;;;;4971250;28;20058;-65
2022/10/04 08:31:25;;;;;;;4.22;2.20;;;;;;;;;;4972762;28;20062;-65
2022/10/04 08:34:30;;;;;;;2.03;1.58;;;;;;;;;;4973206;28;20052;-66
2022/10/04 08:36:58;;;;;;;2.42;1.70;;;;;;;;;;4912992;29;20134;-67
2022/10/04 08:39:24;;;;;;;;;;;;;;;;;;4911322;29;20428;-66
2022/10/04 08:41:53;;;;;;;1.83;0.90;;;;;;;;;;4932561;28;19948;-65
2022/10/04 08:44:26;;;;;;;0.40;0.40;;;;;;;;;;4972155;28;20055;-65
2022/10/04 08:47:11;;;;;;;1.67;0.38;;;;;;;;;;4972420;28;20059;-65
2022/10/04 08:49:56;;;;;;;0.30;0.30;;;;;;;;;;4972428;28;20062;-65
2022/10/04 08:52:32;;;;;;;0.35;0.20;;;;;;;;;;4972649;28;20129;-66
2022/10/04 08:55:11;;;;;;;0.88;0.45;;;;;;;;;;4971228;28;20050;-66
2022/10/04 08:57:56;;;;;;;0.68;0.57;;;;;;;;;;4972393;28;20058;-66
2022/10/04 09:00:31;;;;;;;1.65;0.80;;;;;;;;;;4962560;28;20051;-66
2022/10/04 09:03:13;;;;;;;2.03;1.10;;;;;;;;;;4964598;28;20057;-66
2022/10/04 09:05:46;;;;;;;2.47;1.23;;;;;;;;;;4972848;28;20050;-65
2022/10/04 09:08:27;;;;;;;2.60;1.50;;;;;;;;;;4972521;28;20046;-66
2022/10/04 09:10:55;;;;;;;2.63;1.17;;;;;;;;;;4972533;28;20063;-66
2022/10/04 09:13:21;;;;;;;3.78;1.27;;;;;;;;;;4972126;28;20093;-66
2022/10/04 09:15:55;;;;;;;1.02;0.93;;;;;;;;;;4972436;28;20066;-66
2022/10/04 09:18:31;;;;;;;2.97;1.13;;;;;;;;;;4975925;28;20055;-66
2022/10/04 09:20:58;;;;;;;3.45;1.25;;;;;;;;;;4975144;28;20047;-67
2022/10/04 09:23:28;;;;;;;1.67;0.93;;;;;;;;;;4975816;28;20050;-66
2022/10/04 09:26:13;;;;;;;2.28;1.33;;;;;;;;;;4976347;28;20042;-65
2022/10/04 09:28:58;;;;;;;1.00;0.85;;;;;;;;;;4964995;28;20061;-66
2022/10/04 09:31:40;;;;;;;2.08;0.65;;;;;;;;;;4975398;28;20054;-65
2022/10/04 09:34:25;;;;;;;2.90;0.70;;;;;;;;;;4976102;28;20054;-66
2022/10/04 09:37:10;;;;;;;1.13;0.50;;;;;;;;;;4975872;28;20134;-66
2022/10/04 09:39:52;;;;;;;2.03;0.98;;;;;;;;;;4973968;28;20059;-66
2022/10/04 09:42:50;;;;;;;2.03;1.10;;;;;;;;;;4975599;28;20051;-65
2022/10/04 09:45:20;;;;;;;2.35;1.08;;;;;;;;;;4952595;28;20047;-64
2022/10/04 09:47:57;;;;;;;0.82;0.50;;;;;;;;;;4975535;28;20050;-65
2022/10/04 09:50:47;;;;;;;0.80;0.70;;;;;;;;;;4975540;28;20050;-65
2022/10/04 09:53:23;;;;;;;1.92;1.00;;;;;;;;;;4946438;28;20067;-65
2022/10/04 09:55:49;;;;;;;1.95;0.77;;;;;;;;;;4974964;28;20046;-65
2022/10/04 09:58:19;;;;;;;0.95;0.60;;;;;;;;;;4975708;28;20055;-65
2022/10/04 10:01:02;;;;;;;0.68;0.50;;;;;;;;;;4975492;28;20456;-65
2022/10/04 10:03:34;;;;;;;1.10;0.70;;;;;;;;;;4975645;28;20051;-65
2022/10/04 10:06:19;;;;;;;1.70;0.50;;;;;;;;;;4975530;28;20047;-65
2022/10/04 10:09:00;;;;;;;0.95;0.40;;;;;;;;;;4974770;28;20057;-65
2022/10/04 10:15:02;;;;;;;1.00;0.40;;;;;;;;;;4974198;28;20050;-64
2022/10/04 10:17:39;;;;;;;0.77;0.43;;;;;;;;;;4966881;28;20055;-65
2022/10/04 10:20:26;;;;;;;1.88;0.38;;;;;;;;;;4975004;28;20062;-64
2022/10/04 10:23:11;;;;;;;1.27;0.30;;;;;;;;;;4975006;28;20162;-65
2022/10/04 10:25:53;;;;;;;1.27;0.30;;;;;;;;;;4975205;28;20058;-66
2022/10/04 10:28:45;;;;;;;0.73;0.30;;;;;;;;;;4973309;28;20046;-63
2022/10/04 10:31:30;;;;;;;0.65;0.22;;;;;;;;;;4974703;28;20058;-63
2022/10/04 10:34:07;;;;;;;0.40;0.20;;;;;;;;;;4972604;28;20050;-63
2022/10/04 10:36:33;;;;;;;0.45;0.20;;;;;;;;;;4973692;28;20058;-62
2022/10/04 10:39:18;;;;;;;0.38;0.10;;;;;;;;;;4974503;28;20047;-63
2022/10/04 10:42:05;;;;;;;0.95;0.22;;;;;;;;;;4975293;28;20059;-62
2022/10/04 10:44:41;;;;;;;1.75;0.22;;;;;;;;;;4975029;28;20513;-63
2022/10/04 10:47:29;;;;;;;3.33;0.30;;;;;;;;;;4975204;28;20050;-62
2022/10/04 10:50:15;;;;;;;0.30;0.10;;;;;;;;;;4975492;28;20047;-62
2022/10/04 10:53:03;;;;;;;0.60;0.20;;;;;;;;;;4975371;28;20050;-63
2022/10/04 10:55:58;;;;;;;0.63;0.35;;;;;;;;;;4975037;28;20051;-62
2022/10/04 10:58:27;;;;;;;0.45;0.20;;;;;;;;;;4961328;28;20495;-63
2022/10/04 11:01:11;;;;;;;1.05;0.30;;;;;;;;;;4975139;28;20066;-63
2022/10/04 11:03:43;;;;;;;1.02;0.35;;;;;;;;;;4974765;28;20051;-63
2022/10/04 11:06:15;;;;;;;0.93;0.22;;;;;;;;;;4975047;28;20053;-62
2022/10/04 11:08:50;;;;;;;1.42;0.20;;;;;;;;;;4974710;28;20105;-62
2022/10/04 11:11:40;;;;;;;1.08;0.20;;;;;;;;;;4974478;28;20046;-62
2022/10/04 11:14:22;;;;;;;2.35;0.57;;;;;;;;;;4974858;28;20057;-62
2022/10/04 11:16:49;;;;;;;0.88;0.20;;;;;;;;;;4974631;28;20057;-62
2022/10/04 11:19:28;;;;;;;0.82;0.32;;;;;;;;;;4974705;28;20050;-62
2022/10/04 11:22:14;;;;;;;1.33;0.30;;;;;;;;;;4974265;28;20061;-62
2022/10/04 11:24:43;;;;;;;0.70;0.30;;;;;;;;;;4974629;28;20051;-62
2022/10/04 11:27:13;;;;;;;1.00;0.20;;;;;;;;;;4974489;28;20050;-62
2022/10/04 11:29:58;;;;;;;0.47;0.35;;;;;;;;;;4974537;28;20042;-62
2022/10/04 11:32:44;;;;;;;1.90;0.35;;;;;;;;;;4974197;28;20504;-62
2022/10/04 11:35:26;;;;;;;1.47;0.70;;;;;;;;;;4974398;28;20142;-62
2022/10/04 11:37:56;;;;;;;1.20;0.30;;;;;;;;;;4974474;28;20058;-62
2022/10/04 11:40:29;;;;;;;0.63;0.40;;;;;;;;;;4973255;28;20061;-63
2022/10/04 11:43:14;;;;;;;1.00;0.35;;;;;;;;;;4974290;28;20084;-62
2022/10/04 11:45:54;;;;;;;1.55;0.45;;;;;;;;;;4974129;28;20506;-62
2022/10/04 11:48:47;;;;;;;0.65;0.57;;;;;;;;;;4974216;28;20053;-62
2022/10/04 11:51:35;;;;;;;3.55;0.85;;;;;;;;;;4974395;28;20046;-62
2022/10/04 11:54:24;;;;;;;1.20;0.60;;;;;;;;;;4974003;28;20053;-64
2022/10/04 11:56:55;;;;;;;2.10;0.60;;;;;;;;;;4973807;28;20057;-64
2022/10/04 11:59:28;;;;;;;0.98;0.52;;;;;;;;;;4973813;28;20038;-65
2022/10/04 12:01:58;;;;;;;2.65;0.82;;;;;;;;;;4973969;28;20407;-64
2022/10/04 12:04:37;;;;;;;2.30;0.90;;;;;;;;;;4973977;28;20046;-64
2022/10/04 12:07:25;;;;;;;2.33;0.90;;;;;;;;;;4973704;28;20051;-64
2022/10/04 12:10:02;;;;;;;1.25;0.77;;;;;;;;;;4953628;28;20051;-65
2022/10/04 12:12:37;;;;;;;4.05;1.25;;;;;;;;;;4973582;28;20081;-64
2022/10/04 12:15:13;;;;;;;2.40;1.08;;;;;;;;;;4973840;28;20059;-64
2022/10/04 12:17:39;;;;;;;2.47;1.00;;;;;;;;;;4973439;28;20057;-64
2022/10/04 12:20:17;;;;;;;1.98;0.70;;;;;;;;;;4973363;28;20058;-64
2022/10/04 12:22:52;;;;;;;2.83;0.65;;;;;;;;;;4973363;28;20501;-64
2022/10/04 12:25:37;;;;;;;3.50;0.85;;;;;;;;;;4973515;28;20466;-65
2022/10/04 12:28:16;;;;;;;3.40;0.90;;;;;;;;;;4973314;28;20418;-62
2022/10/04 12:31:01;;;;;;;1.80;0.60;;;;;;;;;;4973607;28;20055;-62
2022/10/04 12:33:46;;;;;;;1.83;0.52;;;;;;;;;;4972685;28;20405;-62
2022/10/04 12:36:26;;;;;;;3.65;0.70;;;;;;;;;;4973015;28;20377;-62
2022/10/04 12:39:10;;;;;;;2.88;0.90;;;;;;;;;;4972892;28;20169;-62
2022/10/04 12:41:40;;;;;;;3.50;0.80;;;;;;;;;;4970693;28;20054;-62
2022/10/04 12:44:25;;;;;;;2.08;0.70;;;;;;;;;;4972775;28;20049;-62
2022/10/04 12:47:10;;;;;;;3.22;0.93;;;;;;;;;;4972627;28;20055;-62
2022/10/04 12:49:37;;;;;;;2.38;0.70;;;;;;;;;;4970461;28;20249;-63
2022/10/04 12:52:18;;;;;;;2.33;0.45;;;;;;;;;;4972560;28;20051;-63
2022/10/04 12:54:51;;;;;;;3.40;0.63;;;;;;;;;;4972429;28;20065;-62
2022/10/04 12:57:23;;;;;;;4.75;0.60;;;;;;;;;;4972559;28;20046;-63
2022/10/04 12:59:50;;;;;;;2.17;0.65;;;;;;;;;;4972570;28;20055;-63
2022/10/04 13:02:26;;;;;;;1.77;0.38;;;;;;;;;;4972361;28;20053;-63
2022/10/04 13:05:02;;;;;;;2.65;0.50;;;;;;;;;;4972450;28;20134;-63
2022/10/04 13:07:47;;;;;;;2.10;0.43;;;;;;;;;;4972375;28;20051;-63
2022/10/04 13:10:16;;;;;;;2.42;0.85;;;;;;;;;;4972500;28;20042;-63
2022/10/04 13:13:02;;;;;;;2.38;0.40;;;;;;;;;;4972211;28;20098;-63
2022/10/04 13:15:42;;;;;;;0.75;0.70;;;;;;;;;;4972593;28;20082;-63
2022/10/04 13:18:33;;;;;;;1.85;0.63;;;;;;;;;;4972123;28;20114;-63
2022/10/04 13:21:05;;;;;;;1.85;0.30;;;;;;;;;;4972489;28;20059;-63
2022/10/04 13:23:31;;;;;;;2.72;0.47;;;;;;;;;;4972104;28;20039;-63
2022/10/04 13:25:57;;;;;;;2.70;0.87;;;;;;;;;;4972440;28;20053;-63
2022/10/04 13:28:45;;;;;;;2.35;0.60;;;;;;;;;;4971919;28;20050;-63
2022/10/04 13:31:33;;;;;;;1.70;0.35;;;;;;;;;;4972136;28;20404;-63
2022/10/04 13:34:13;;;;;;;3.65;0.77;;;;;;;;;;4970314;28;20051;-63
2022/10/04 13:37:00;;;;;;;3.70;0.40;;;;;;;;;;4972054;28;20582;-63
2022/10/04 13:39:29;;;;;;;2.08;0.52;;;;;;;;;;4972323;28;20047;-64
2022/10/04 13:42:14;;;;;;;2.58;0.70;;;;;;;;;;4972248;28;20065;-63
2022/10/04 13:44:40;;;;;;;1.17;0.47;;;;;;;;;;4972132;28;20054;-63
2022/10/04 13:47:18;;;;;;;2.67;0.68;;;;;;;;;;4972515;28;20050;-63
2022/10/04 13:49:47;;;;;;;2.58;0.40;;;;;;;;;;4970481;28;20065;-63
2022/10/04 13:58:10;;;;;;;2.30;0.50;;;;;;;;;;4971694;28;20047;-63
2022/10/04 14:00:50;;;;;;;1.67;0.45;;;;;;;;;;4971869;28;20134;-63
2022/10/04 14:03:25;;;;;;;3.83;0.57;;;;;;;;;;4973428;28;20495;-63
2022/10/04 14:06:24;;;;;;;1.30;0.40;;;;;;;;;;4975467;28;20537;-64
2022/10/04 14:08:56;;;;;;;3.70;0.70;;;;;;;;;;4944366;28;20059;-62
2022/10/04 14:11:40;;;;;;;2.33;0.65;;;;;;;;;;4973381;28;20519;-63
2022/10/04 14:14:21;;;;;;;2.58;0.60;;;;;;;;;;4974505;28;20047;-63
2022/10/04 14:16:47;;;;;;;4.18;0.70;;;;;;;;;;4976015;28;20054;-63
2022/10/04 14:19:13;;;;;;;2.08;0.60;;;;;;;;;;4974661;28;20050;-63
2022/10/04 14:21:40;;;;;;;2.22;0.50;;;;;;;;;;4975421;28;20051;-63
2022/10/04 14:24:12;;;;;;;4.50;0.65;;;;;;;;;;4973902;28;20058;-63
2022/10/04 14:26:38;;;;;;;2.65;0.63;;;;;;;;;;4975035;28;20054;-63
2022/10/04 14:29:20;;;;;;;3.80;0.70;;;;;;;;;;4974958;28;20051;-63
2022/10/04 14:31:59;;;;;;;2.63;0.90;;;;;;;;;;4975040;28;20077;-63
2022/10/04 14:34:25;;;;;;;2.63;0.60;;;;;;;;;;4974903;28;20051;-63
2022/10/04 14:37:11;;;;;;;4.78;0.82;;;;;;;;;;4974845;28;20039;-63
2022/10/04 14:39:53;;;;;;;3.03;0.65;;;;;;;;;;4974742;28;20487;-64
2022/10/04 14:42:37;;;;;;;2.72;0.70;;;;;;;;;;4974665;28;20051;-63
2022/10/04 14:45:11;;;;;;;2.50;0.80;;;;;;;;;;4974429;28;20415;-63
2022/10/04 14:47:38;;;;;;;3.33;0.60;;;;;;;;;;4974640;28;20051;-63
2022/10/04 14:50:20;;;;;;;2.42;0.60;;;;;;;;;;4975017;28;20046;-63
2022/10/04 14:52:53;;;;;;;1.92;0.50;;;;;;;;;;4974865;28;20110;-64
2022/10/04 14:55:21;;;;;;;3.92;1.10;;;;;;;;;;4974693;28;20054;-64
2022/10/04 14:57:51;;;;;;;2.00;0.52;;;;;;;;;;4974941;28;20059;-64
2022/10/04 15:00:19;;;;;;;1.43;0.40;;;;;;;;;;4974714;28;20050;-63
2022/10/04 15:02:52;;;;;;;1.80;0.52;;;;;;;;;;4972567;28;20055;-63
2022/10/04 15:05:18;;;;;;;2.75;0.57;;;;;;;;;;4974702;28;20154;-64
2022/10/04 15:07:51;;;;;;;3.57;0.70;;;;;;;;;;4974565;28;20050;-64
2022/10/04 15:10:28;;;;;;;3.03;0.60;;;;;;;;;;4974722;28;20067;-64
2022/10/04 15:13:29;;;;;;;2.63;0.52;;;;;;;;;;4974329;28;20435;-64
2022/10/04 15:15:59;;;;;;;4.45;1.00;;;;;;;;;;4935231;28;20059;-65
2022/10/04 15:18:29;;;;;;;2.75;0.68;;;;;;;;;;4970123;28;20105;-64
2022/10/04 15:20:58;;;;;;;4.10;0.85;;;;;;;;;;4974039;28;20058;-65
2022/10/04 15:23:28;;;;;;;3.03;0.60;;;;;;;;;;4974364;28;20053;-63
2022/10/04 15:26:06;;;;;;;2.50;0.63;;;;;;;;;;4974270;28;20411;-64
2022/10/04 15:28:47;;;;;;;3.55;0.90;;;;;;;;;;4974091;28;20051;-63
2022/10/04 15:31:27;;;;;;;2.45;0.77;;;;;;;;;;4973919;28;20593;-64
2022/10/04 15:34:08;;;;;;;2.15;0.60;;;;;;;;;;4973677;28;20133;-63
2022/10/04 15:36:45;;;;;;;5.32;0.68;;;;;;;;;;4973965;28;20051;-63
2022/10/04 15:39:27;;;;;;;4.60;0.95;;;;;;;;;;4973947;28;20050;-63
2022/10/04 15:41:53;;;;;;;3.05;0.93;;;;;;;;;;4973958;28;20054;-64
2022/10/04 15:44:19;;;;;;;5.03;0.88;;;;;;;;;;4973689;28;20058;-64